createdAt,value
2024-04-30T00:00:20.935Z,49.41
2024-04-30T00:02:22.747Z,49.83
2024-04-30T00:04:25.330Z,49.46
2024-04-30T00:06:27.188Z,49.03
2024-04-30T00:08:28.899Z,48.98
2024-04-30T00:10:30.907Z,49.45
2024-04-30T00:12:32.900Z,49.59
2024-04-30T00:14:34.757Z,49.52
2024-04-30T00:16:46.331Z,49.23
2024-04-30T00:18:48.260Z,49.33
2024-04-30T00:20:50.080Z,49.22
2024-04-30T00:22:51.853Z,49.33
2024-04-30T00:24:53.798Z,49.54
2024-04-30T00:26:55.621Z,50.17
2024-04-30T00:28:57.487Z,50.01
2024-04-30T00:30:59.370Z,49.81
2024-04-30T00:33:01.206Z,49.79
2024-04-30T00:35:02.987Z,49.99
2024-04-30T00:37:04.788Z,50.20
2024-04-30T00:39:06.705Z,50.19
2024-04-30T00:41:08.447Z,50.51
2024-04-30T00:43:10.192Z,50.62
2024-04-30T00:45:12.062Z,50.40
2024-04-30T00:47:14.734Z,50.79
2024-04-30T00:49:16.593Z,50.75
2024-04-30T00:51:18.438Z,50.93
2024-04-30T00:53:20.859Z,50.65
2024-04-30T00:55:22.694Z,51.64
2024-04-30T00:57:24.765Z,51.11
2024-04-30T00:59:26.566Z,51.47
2024-04-30T01:01:28.458Z,51.49
2024-04-30T01:03:30.346Z,51.57
2024-04-30T01:05:32.234Z,51.85
2024-04-30T01:07:34.393Z,51.79
2024-04-30T01:09:36.160Z,51.94
2024-04-30T01:11:38.035Z,51.54
2024-04-30T01:13:39.948Z,52.17
2024-04-30T01:15:41.722Z,51.88
2024-04-30T01:17:43.640Z,51.91
2024-04-30T01:19:45.592Z,52.08
2024-04-30T01:21:47.411Z,51.85
2024-04-30T01:23:49.148Z,51.66
2024-04-30T01:25:50.844Z,51.72
2024-04-30T01:27:52.676Z,52.04
2024-04-30T01:29:54.430Z,51.77
2024-04-30T01:31:56.498Z,52.10
2024-04-30T01:33:58.300Z,52.20
2024-04-30T01:36:00.103Z,51.90
2024-04-30T01:38:02.036Z,51.84
2024-04-30T01:40:04.085Z,52.42
2024-04-30T01:42:06.535Z,52.45
2024-04-30T01:44:08.259Z,52.58
2024-04-30T01:46:10.046Z,52.73
2024-04-30T01:48:12.002Z,53.18
2024-04-30T01:50:13.953Z,53.02
2024-04-30T01:52:15.818Z,53.16
2024-04-30T01:54:17.531Z,52.93
2024-04-30T01:56:19.302Z,53.27
2024-04-30T01:58:21.071Z,54.01
2024-04-30T02:00:22.805Z,54.06
2024-04-30T02:02:24.605Z,54.07
2024-04-30T02:04:27.382Z,54.09
2024-04-30T02:06:30.568Z,54.30
2024-04-30T02:08:32.442Z,54.29
2024-04-30T02:10:34.253Z,54.18
2024-04-30T02:12:36.023Z,54.38
2024-04-30T02:14:37.765Z,54.27
2024-04-30T02:16:39.879Z,54.90
2024-04-30T02:18:41.712Z,54.99
2024-04-30T02:20:43.469Z,55.13
2024-04-30T02:22:45.224Z,55.13
2024-04-30T02:24:47.089Z,55.36
2024-04-30T02:26:48.976Z,55.26
2024-04-30T02:28:51.314Z,55.74
2024-04-30T02:31:02.227Z,55.77
2024-04-30T02:33:13.242Z,55.88
2024-04-30T02:35:15.089Z,56.14
2024-04-30T02:37:16.826Z,56.01
2024-04-30T02:39:18.988Z,56.16
2024-04-30T02:41:20.786Z,56.36
2024-04-30T02:43:22.518Z,56.15
2024-04-30T02:45:24.418Z,56.39
2024-04-30T02:47:26.359Z,56.25
2024-04-30T02:49:28.205Z,56.23
2024-04-30T02:51:30.242Z,56.36
2024-04-30T02:53:32.324Z,56.23
2024-04-30T02:55:34.339Z,56.41
2024-04-30T02:57:36.563Z,56.78
2024-04-30T02:59:39.544Z,56.87
2024-04-30T03:01:41.516Z,57.03
2024-04-30T03:03:44.327Z,56.92
2024-04-30T03:05:46.450Z,57.28
2024-04-30T03:07:48.488Z,57.35
2024-04-30T03:09:50.987Z,57.30
2024-04-30T03:11:53.424Z,57.77
2024-04-30T03:13:55.995Z,57.95
2024-04-30T03:15:58.096Z,57.48
2024-04-30T03:18:03.571Z,57.93
2024-04-30T03:20:06.259Z,58.52
2024-04-30T03:22:08.586Z,58.34
2024-04-30T03:24:10.752Z,58.48
2024-04-30T03:26:12.767Z,58.97
2024-04-30T03:28:14.734Z,59.15
2024-04-30T03:30:16.913Z,59.44
2024-04-30T03:32:19.050Z,59.66
2024-04-30T03:34:22.400Z,59.73
2024-04-30T03:36:24.740Z,59.82
2024-04-30T03:38:27.017Z,59.82
2024-04-30T03:40:28.929Z,60.33
2024-04-30T03:42:31.931Z,60.37
2024-04-30T03:44:35.884Z,60.56
2024-04-30T03:46:37.834Z,60.67
2024-04-30T03:48:40.099Z,60.85
2024-04-30T03:50:42.572Z,61.04
2024-04-30T03:52:44.573Z,61.01
2024-04-30T03:54:46.622Z,61.36
2024-04-30T03:56:49.524Z,61.12
2024-04-30T03:58:51.651Z,61.12
2024-04-30T04:00:53.671Z,61.38
2024-04-30T04:02:56.113Z,61.45
2024-04-30T04:04:58.096Z,61.56
2024-04-30T04:07:00.154Z,61.63
2024-04-30T04:09:02.373Z,61.70
2024-04-30T04:11:14.382Z,61.45
2024-04-30T04:13:26.401Z,61.67
2024-04-30T04:15:28.914Z,61.66
2024-04-30T04:17:31.102Z,61.78
2024-04-30T04:19:34.101Z,61.45
2024-04-30T04:21:36.101Z,62.00
2024-04-30T04:23:38.019Z,62.15
2024-04-30T04:25:39.985Z,62.23
2024-04-30T04:27:41.918Z,62.13
2024-04-30T04:29:44.261Z,62.31
2024-04-30T04:31:47.510Z,62.06
2024-04-30T04:33:49.493Z,62.38
2024-04-30T04:35:51.449Z,62.66
2024-04-30T04:37:54.072Z,62.47
2024-04-30T04:39:56.281Z,62.70
2024-04-30T04:41:58.338Z,62.74
2024-04-30T04:44:00.309Z,62.87
2024-04-30T04:46:02.803Z,62.61
2024-04-30T04:48:05.344Z,63.06
2024-04-30T04:50:08.186Z,62.85
2024-04-30T04:52:13.273Z,63.19
2024-04-30T04:54:15.506Z,63.28
2024-04-30T04:56:17.735Z,63.25
2024-04-30T04:58:20.610Z,63.19
2024-04-30T05:00:25.461Z,63.20
2024-04-30T05:02:27.740Z,63.27
2024-04-30T05:04:29.944Z,62.99
2024-04-30T05:06:35.017Z,62.94
2024-04-30T05:08:37.568Z,63.04
2024-04-30T05:10:39.810Z,63.28
2024-04-30T05:12:42.074Z,63.13
2024-04-30T05:14:44.443Z,62.81
2024-04-30T05:16:46.789Z,62.79
2024-04-30T05:18:49.165Z,62.93
2024-04-30T05:20:51.888Z,62.86
2024-04-30T05:22:56.399Z,63.15
2024-04-30T05:24:58.509Z,63.46
2024-04-30T05:27:01.562Z,63.32
2024-04-30T05:29:03.675Z,63.43
2024-04-30T05:31:08.211Z,63.55
2024-04-30T05:33:11.176Z,63.43
2024-04-30T05:35:14.944Z,63.54
2024-04-30T05:37:17.109Z,63.37
2024-04-30T05:39:20.267Z,63.49
2024-04-30T05:41:22.545Z,63.79
2024-04-30T05:43:24.709Z,63.62
2024-04-30T05:45:27.437Z,63.44
2024-04-30T05:47:33.037Z,63.28
2024-04-30T05:49:35.343Z,63.68
2024-04-30T05:51:37.938Z,63.43
2024-04-30T05:53:40.293Z,63.18
2024-04-30T05:55:42.832Z,63.51
2024-04-30T05:57:45.102Z,63.57
2024-04-30T05:59:50.205Z,63.42
2024-04-30T06:02:02.306Z,63.20
2024-04-30T06:04:08.223Z,63.21
2024-04-30T06:06:11.102Z,63.34
2024-04-30T06:08:15.835Z,63.36
2024-04-30T06:10:21.395Z,63.07
2024-04-30T06:12:24.226Z,63.08
2024-04-30T06:14:29.517Z,63.57
2024-04-30T06:16:35.275Z,63.04
2024-04-30T06:18:38.131Z,62.96
2024-04-30T06:20:40.908Z,62.46
2024-04-30T06:22:43.674Z,62.47
2024-04-30T06:24:46.290Z,62.66
2024-04-30T06:26:50.133Z,62.42
2024-04-30T06:28:55.750Z,62.30
2024-04-30T06:30:58.466Z,62.42
2024-04-30T06:33:01.191Z,62.69
2024-04-30T06:35:06.478Z,62.88
2024-04-30T06:37:09.365Z,62.93
2024-04-30T06:39:13.425Z,62.29
2024-04-30T06:41:16.146Z,62.42
2024-04-30T06:43:18.340Z,61.61
2024-04-30T06:45:26.403Z,60.99
2024-04-30T06:47:29.067Z,60.77
2024-04-30T06:49:34.919Z,60.69
2024-04-30T06:51:46.429Z,60.09
2024-04-30T06:53:49.995Z,60.12
2024-04-30T06:55:54.480Z,59.66
2024-04-30T06:57:58.755Z,59.41
2024-04-30T07:00:02.400Z,59.12
2024-04-30T07:02:12.080Z,58.95
2024-04-30T07:04:19.736Z,58.78
2024-04-30T07:06:33.014Z,58.55
2024-04-30T07:08:46.268Z,57.74
2024-04-30T07:10:48.547Z,58.11
2024-04-30T07:12:59.313Z,57.85
2024-04-30T07:15:05.337Z,57.00
2024-04-30T07:17:09.308Z,56.37
2024-04-30T07:19:17.437Z,56.53
2024-04-30T07:21:20.304Z,56.46
2024-04-30T07:23:22.386Z,55.97
2024-04-30T07:25:42.372Z,55.82
2024-04-30T07:27:45.194Z,55.15
2024-04-30T07:29:47.934Z,55.18
2024-04-30T07:31:56.151Z,54.84
2024-04-30T07:34:06.092Z,54.45
2024-04-30T07:36:11.391Z,53.86
2024-04-30T07:38:18.926Z,54.22
2024-04-30T07:40:24.641Z,53.69
2024-04-30T07:42:32.021Z,53.08
2024-04-30T07:44:45.671Z,52.61
2024-04-30T07:46:48.059Z,53.02
2024-04-30T07:48:57.870Z,52.41
2024-04-30T07:51:01.670Z,51.72
2024-04-30T07:53:05.132Z,51.54
2024-04-30T07:55:12.985Z,51.46
2024-04-30T07:57:29.412Z,51.56
2024-04-30T07:59:31.742Z,51.32
2024-04-30T08:01:43.461Z,50.76
2024-04-30T08:03:52.919Z,50.89
2024-04-30T08:05:56.386Z,50.12
2024-04-30T08:08:01.389Z,50.09
2024-04-30T08:10:21.674Z,50.48
2024-04-30T08:12:24.466Z,50.34
2024-04-30T08:14:33.761Z,49.48
2024-04-30T08:16:40.418Z,49.72
2024-04-30T08:18:43.442Z,49.96
2024-04-30T08:20:45.554Z,49.77
2024-04-30T08:22:48.245Z,49.21
2024-04-30T08:24:57.637Z,49.77
2024-04-30T08:26:59.602Z,49.24
2024-04-30T08:29:05.180Z,49.35
2024-04-30T08:31:22.917Z,49.75
2024-04-30T08:33:25.411Z,49.86
2024-04-30T08:35:44.111Z,49.37
2024-04-30T08:37:54.119Z,50.07
2024-04-30T08:40:07.993Z,49.45
2024-04-30T08:42:10.151Z,49.75
2024-04-30T08:44:14.614Z,49.70
2024-04-30T08:46:23.273Z,49.35
2024-04-30T08:48:46.398Z,49.65
2024-04-30T08:51:07.506Z,49.68
2024-04-30T08:53:16.765Z,49.06
2024-04-30T08:55:58.719Z,49.57
2024-04-30T08:58:00.765Z,49.10
2024-04-30T09:00:03.236Z,49.07
2024-04-30T09:02:05.700Z,49.31
2024-04-30T09:04:09.037Z,49.27
2024-04-30T09:06:11.925Z,49.69
2024-04-30T09:08:18.738Z,49.48
2024-04-30T09:10:20.989Z,49.11
2024-04-30T09:12:23.107Z,49.21
2024-04-30T09:14:25.473Z,48.91
2024-04-30T09:16:27.712Z,48.98
2024-04-30T09:18:30.169Z,48.33
2024-04-30T09:20:32.359Z,48.21
2024-04-30T09:22:44.519Z,48.07
2024-04-30T09:24:47.347Z,47.76
2024-04-30T09:26:52.115Z,47.49
2024-04-30T09:28:56.333Z,47.83
2024-04-30T09:30:59.894Z,47.91
2024-04-30T09:33:10.457Z,47.71
2024-04-30T09:35:22.809Z,47.60
2024-04-30T09:37:25.263Z,47.58
2024-04-30T09:39:29.820Z,47.80
2024-04-30T09:41:32.713Z,47.54
2024-04-30T09:43:35.168Z,47.57
2024-04-30T09:45:37.853Z,47.24
2024-04-30T09:47:40.770Z,47.25
2024-04-30T09:49:43.955Z,47.70
2024-04-30T09:51:47.394Z,48.05
2024-04-30T09:53:49.743Z,48.06
2024-04-30T09:55:53.177Z,47.89
2024-04-30T09:57:56.231Z,47.89
2024-04-30T09:59:58.628Z,47.74
2024-04-30T10:02:04.970Z,47.57
2024-04-30T10:04:08.541Z,47.60
2024-04-30T10:06:15.493Z,47.80
2024-04-30T10:08:19.282Z,47.73
2024-04-30T10:10:38.604Z,47.46
2024-04-30T10:13:06.016Z,47.24
2024-04-30T10:18:12.577Z,46.68
2024-04-30T10:20:27.062Z,46.38
2024-04-30T10:22:38.624Z,46.31
2024-04-30T10:24:41.786Z,45.77
2024-04-30T10:26:46.559Z,45.85
2024-04-30T10:29:02.758Z,45.88
2024-04-30T10:31:10.116Z,45.71
2024-04-30T10:33:15.187Z,46.34
2024-04-30T10:35:18.848Z,45.86
2024-04-30T10:37:27.642Z,45.82
2024-04-30T10:39:30.622Z,46.40
2024-04-30T10:41:33.219Z,46.11
2024-04-30T10:43:35.912Z,45.91
2024-04-30T10:45:38.332Z,45.09
2024-04-30T10:47:40.727Z,44.70
2024-04-30T10:49:51.138Z,45.00
2024-04-30T10:51:55.773Z,44.53
2024-04-30T10:53:59.142Z,45.25
2024-04-30T10:56:01.951Z,44.09
2024-04-30T10:58:14.318Z,45.02
2024-04-30T11:00:17.146Z,44.51
2024-04-30T11:02:19.550Z,44.20
2024-04-30T11:04:28.401Z,43.71
2024-04-30T11:06:40.728Z,44.02
2024-04-30T11:08:42.942Z,43.64
2024-04-30T11:10:47.550Z,43.89
2024-04-30T11:12:56.111Z,41.44
2024-04-30T11:14:59.125Z,40.80
2024-04-30T11:17:02.071Z,42.83
2024-04-30T11:19:04.504Z,43.42
2024-04-30T11:21:07.383Z,43.51
2024-04-30T11:23:09.671Z,44.01
2024-04-30T11:25:11.849Z,43.86
2024-04-30T11:27:14.164Z,43.69
2024-04-30T11:29:30.407Z,42.71
2024-04-30T11:31:37.830Z,40.89
2024-04-30T11:33:40.050Z,40.70
2024-04-30T11:35:42.336Z,40.86
2024-04-30T11:37:44.701Z,40.65
2024-04-30T11:39:47.243Z,40.74
2024-04-30T11:41:57.277Z,41.11
2024-04-30T11:44:08.888Z,41.54
2024-04-30T11:46:12.027Z,41.64
2024-04-30T11:48:14.935Z,42.02
2024-04-30T11:50:17.336Z,41.69
2024-04-30T11:52:21.254Z,41.95
2024-04-30T11:54:31.076Z,42.11
2024-04-30T11:56:34.465Z,42.42
2024-04-30T11:58:38.103Z,41.74
2024-04-30T12:00:40.860Z,42.08
2024-04-30T12:02:44.907Z,42.46
2024-04-30T12:04:47.442Z,42.51
2024-04-30T12:06:49.752Z,42.33
2024-04-30T12:08:53.572Z,41.99
2024-04-30T12:10:56.339Z,42.39
2024-04-30T12:13:01.099Z,42.44
2024-04-30T12:15:04.010Z,42.53
2024-04-30T12:17:07.298Z,42.63
2024-04-30T12:19:10.098Z,42.96
2024-04-30T12:21:12.320Z,42.62
2024-04-30T12:23:16.501Z,42.41
2024-04-30T12:25:18.652Z,42.01
2024-04-30T12:27:21.046Z,42.06
2024-04-30T12:29:23.159Z,42.16
2024-04-30T12:31:25.376Z,41.69
2024-04-30T12:33:28.605Z,41.46
2024-04-30T12:35:31.706Z,41.33
2024-04-30T12:37:33.971Z,41.51
2024-04-30T12:39:37.229Z,40.97
2024-04-30T12:41:39.690Z,40.52
2024-04-30T12:43:50.987Z,41.05
2024-04-30T12:45:55.597Z,40.87
2024-04-30T12:50:36.902Z,40.75
2024-04-30T12:52:39.461Z,40.90
2024-04-30T12:54:43.159Z,40.52
2024-04-30T12:56:47.179Z,40.27
2024-04-30T13:49:10.280Z,40.17
2024-04-30T13:51:14.125Z,39.69
2024-04-30T13:53:16.442Z,38.87
2024-04-30T13:55:19.119Z,38.88
2024-04-30T13:57:21.302Z,39.27
2024-04-30T13:59:23.649Z,39.09
2024-04-30T14:01:25.874Z,38.82
2024-04-30T14:03:28.188Z,38.47
2024-04-30T14:05:30.753Z,38.85
2024-04-30T14:07:33.431Z,37.87
2024-04-30T14:09:35.956Z,38.12
2024-04-30T14:11:38.571Z,37.75
2024-04-30T14:13:41.029Z,37.24
2024-04-30T14:15:43.586Z,38.04
2024-04-30T14:17:46.237Z,37.30
2024-04-30T14:19:49.566Z,36.91
2024-04-30T14:21:52.061Z,37.08
2024-04-30T14:23:54.451Z,37.39
2024-04-30T14:25:58.126Z,36.68
2024-04-30T14:28:01.005Z,36.60
2024-04-30T14:30:03.237Z,37.01
2024-04-30T14:32:07.085Z,37.48
2024-04-30T14:34:09.700Z,37.22
2024-04-30T14:36:25.533Z,36.68
2024-04-30T14:38:27.884Z,37.25
2024-04-30T14:40:30.506Z,37.23
2024-04-30T14:42:33.274Z,36.80
2024-04-30T14:44:35.973Z,36.26
2024-04-30T14:46:38.789Z,36.31
2024-04-30T14:48:44.213Z,36.36
2024-04-30T14:50:46.547Z,35.88
2024-04-30T14:52:49.005Z,34.97
2024-04-30T14:54:52.618Z,35.15
2024-04-30T14:56:55.806Z,34.64
2024-04-30T14:58:58.596Z,35.49
2024-04-30T15:01:01.136Z,35.89
2024-04-30T15:03:03.940Z,36.84
2024-04-30T15:05:06.679Z,37.11
2024-04-30T15:07:09.427Z,37.25
2024-04-30T15:09:11.865Z,37.46
2024-04-30T15:11:22.421Z,37.21
2024-04-30T15:13:25.173Z,37.17
2024-04-30T15:15:28.066Z,37.37
2024-04-30T15:17:32.074Z,37.12
2024-04-30T15:19:34.820Z,37.25
2024-04-30T15:21:37.096Z,37.49
2024-04-30T15:23:43.360Z,37.27
2024-04-30T15:25:45.781Z,37.16
2024-04-30T15:27:49.997Z,37.77
2024-04-30T15:29:52.865Z,37.93
2024-04-30T15:31:55.448Z,39.12
2024-04-30T15:33:58.010Z,39.15
2024-04-30T15:36:00.235Z,39.88
2024-04-30T15:38:02.693Z,39.67
2024-04-30T15:40:05.520Z,38.97
2024-04-30T15:42:08.301Z,39.60
2024-04-30T15:44:11.092Z,40.03
2024-04-30T15:46:13.864Z,40.29
2024-04-30T15:48:17.573Z,40.45
2024-04-30T15:50:19.877Z,40.48
2024-04-30T15:52:22.225Z,39.80
2024-04-30T15:54:24.447Z,39.43
2024-04-30T15:56:26.873Z,39.76
2024-04-30T15:58:29.551Z,39.47
2024-04-30T16:00:32.341Z,39.24
2024-04-30T16:02:34.994Z,39.57
2024-04-30T16:04:38.010Z,39.43
2024-04-30T16:06:41.142Z,38.93
2024-04-30T16:08:43.660Z,38.69
2024-04-30T16:10:45.887Z,38.14
2024-04-30T16:12:48.536Z,37.43
2024-04-30T16:14:51.292Z,38.33
2024-04-30T16:16:53.845Z,38.86
2024-04-30T16:18:56.862Z,38.64
2024-04-30T16:21:00.189Z,38.77
2024-04-30T16:23:02.499Z,39.13
2024-04-30T16:25:05.089Z,39.48
2024-04-30T16:27:07.270Z,39.69
2024-04-30T16:29:09.855Z,40.59
2024-04-30T16:31:12.680Z,39.61
2024-04-30T16:33:16.246Z,38.86
2024-04-30T16:35:20.792Z,38.53
2024-04-30T16:37:23.392Z,39.08
2024-04-30T16:39:26.585Z,38.39
2024-04-30T16:41:29.769Z,38.17
2024-04-30T16:43:32.970Z,38.00
2024-04-30T16:45:35.948Z,38.27
2024-04-30T16:47:39.978Z,37.97
2024-04-30T16:49:57.793Z,38.70
2024-04-30T16:52:02.089Z,38.33
2024-04-30T16:54:05.171Z,38.78
2024-04-30T16:56:08.067Z,38.41
2024-04-30T16:58:12.170Z,39.10
2024-04-30T17:00:17.884Z,39.63
2024-04-30T17:02:20.482Z,39.92
2024-04-30T17:04:24.770Z,40.39
2024-04-30T17:06:28.280Z,40.20
2024-04-30T17:08:31.195Z,40.52
2024-04-30T17:10:34.606Z,41.18
2024-04-30T17:12:37.229Z,41.06
2024-04-30T17:14:40.832Z,41.06
2024-04-30T17:16:45.355Z,40.90
2024-04-30T17:18:49.235Z,41.31
2024-04-30T17:20:54.047Z,41.29
2024-04-30T17:22:56.603Z,41.87
2024-04-30T17:25:03.668Z,42.20
2024-04-30T17:27:06.268Z,41.97
2024-04-30T17:29:10.007Z,42.45
2024-04-30T17:31:16.652Z,42.25
2024-04-30T17:33:23.139Z,41.91
2024-04-30T17:35:25.706Z,41.85
2024-04-30T17:37:30.715Z,42.03
2024-04-30T17:39:33.317Z,41.80
2024-04-30T17:41:36.149Z,42.66
2024-04-30T17:43:40.840Z,42.54
2024-04-30T17:45:46.963Z,43.30
2024-04-30T17:47:54.511Z,43.44
2024-04-30T17:49:57.871Z,43.94
2024-04-30T17:52:00.588Z,43.87
2024-04-30T17:54:03.408Z,44.34
2024-04-30T17:56:06.226Z,43.90
2024-04-30T17:58:08.622Z,45.52
2024-04-30T18:00:11.680Z,45.94
2024-04-30T18:02:14.341Z,47.70
2024-04-30T18:04:18.620Z,49.06
2024-04-30T18:06:21.493Z,49.80
2024-04-30T18:08:23.706Z,50.03
2024-04-30T18:10:36.082Z,49.75
2024-04-30T18:12:43.632Z,50.50
2024-04-30T18:14:46.041Z,50.59
2024-04-30T18:16:48.447Z,50.84
2024-04-30T18:18:52.109Z,50.87
2024-04-30T18:20:54.515Z,51.09
2024-04-30T18:22:56.755Z,50.71
2024-04-30T18:24:58.873Z,50.69
2024-04-30T18:27:00.949Z,51.07
2024-04-30T18:29:03.011Z,51.16
2024-04-30T18:31:09.152Z,51.69
2024-04-30T18:33:11.396Z,51.70
2024-04-30T18:35:13.641Z,52.17
2024-04-30T18:37:17.409Z,51.90
2024-04-30T18:39:19.919Z,51.48
2024-04-30T18:41:28.335Z,51.56
2024-04-30T18:43:33.135Z,51.75
2024-04-30T18:45:35.130Z,52.23
2024-04-30T18:47:37.480Z,52.33
2024-04-30T18:49:43.632Z,52.54
2024-04-30T18:51:45.828Z,52.72
2024-04-30T18:53:48.384Z,52.92
2024-04-30T18:55:50.401Z,53.46
2024-04-30T18:57:52.924Z,53.59
2024-04-30T18:59:55.382Z,53.97
2024-04-30T19:01:58.429Z,54.49
2024-04-30T19:04:00.739Z,55.00
2024-04-30T19:06:10.246Z,55.13
2024-04-30T19:08:12.476Z,55.43
2024-04-30T19:10:14.499Z,55.66
2024-04-30T19:12:16.753Z,56.21
2024-04-30T19:14:18.743Z,56.27
2024-04-30T19:16:20.635Z,56.48
2024-04-30T19:19:00.352Z,56.54
2024-04-30T19:20:52.517Z,57.38
2024-04-30T19:22:55.958Z,57.87
2024-04-30T19:24:58.262Z,57.96
2024-04-30T19:27:00.559Z,57.54
2024-04-30T19:29:02.869Z,58.04
2024-04-30T19:31:05.183Z,58.08
2024-04-30T19:33:10.728Z,58.22
2024-04-30T19:35:12.796Z,58.20
2024-04-30T19:37:14.693Z,58.58
2024-04-30T19:39:16.817Z,58.70
2024-04-30T19:41:19.882Z,58.82
2024-04-30T19:43:21.742Z,58.82
2024-04-30T19:45:23.972Z,58.88
2024-04-30T19:47:26.301Z,59.02
2024-04-30T19:49:29.405Z,59.12
2024-04-30T19:51:31.795Z,59.37
2024-04-30T19:53:33.868Z,59.43
2024-04-30T19:55:35.737Z,59.65
2024-04-30T19:57:37.787Z,59.67
2024-04-30T19:59:41.348Z,59.66
2024-04-30T20:01:44.484Z,60.02
2024-04-30T20:03:46.827Z,60.46
2024-04-30T20:05:48.855Z,60.60
2024-04-30T20:07:50.835Z,60.46
2024-04-30T20:09:52.939Z,60.41
2024-04-30T20:11:54.852Z,60.77
2024-04-30T20:13:56.889Z,60.98
2024-04-30T20:15:58.890Z,61.09
2024-04-30T20:18:01.236Z,61.32
2024-04-30T20:20:14.236Z,61.21
2024-04-30T20:22:16.520Z,61.90
2024-04-30T20:24:22.884Z,62.02
2024-04-30T20:26:29.042Z,62.41
2024-04-30T20:28:34.731Z,62.74
2024-04-30T20:30:36.897Z,63.10
2024-04-30T20:32:39.004Z,63.08
2024-04-30T20:34:41.367Z,63.03
2024-04-30T20:36:44.267Z,63.51
2024-04-30T20:38:46.418Z,63.79
2024-04-30T20:40:48.561Z,63.82
2024-04-30T20:42:50.729Z,64.00
2024-04-30T20:44:52.788Z,63.83
2024-04-30T20:46:54.974Z,64.23
2024-04-30T20:48:57.250Z,64.43
2024-04-30T20:50:59.562Z,64.40
2024-04-30T20:53:02.158Z,64.39
2024-04-30T20:55:06.166Z,64.17
2024-04-30T20:57:08.068Z,64.27
2024-04-30T20:59:10.802Z,64.45
2024-04-30T21:01:17.003Z,64.39
2024-04-30T21:03:19.481Z,64.61
2024-04-30T21:05:21.562Z,64.86
2024-04-30T21:07:24.016Z,64.76
2024-04-30T21:09:25.968Z,64.86
2024-04-30T21:11:27.960Z,64.79
2024-04-30T21:13:30.100Z,64.87
2024-04-30T21:15:32.097Z,65.02
2024-04-30T21:17:35.634Z,65.37
2024-04-30T21:19:37.749Z,65.88
2024-04-30T21:21:40.875Z,65.94
2024-04-30T21:23:43.658Z,65.97
2024-04-30T21:25:45.881Z,66.13
2024-04-30T21:27:48.842Z,66.46
2024-04-30T21:29:51.087Z,66.57
2024-04-30T21:31:53.411Z,66.50
2024-04-30T21:33:55.814Z,66.94
2024-04-30T21:35:58.522Z,66.93
2024-04-30T21:38:00.683Z,67.41
2024-04-30T21:40:02.914Z,67.74
2024-04-30T21:42:05.270Z,67.92
2024-04-30T21:44:08.087Z,68.29
2024-04-30T21:46:10.314Z,68.26
2024-04-30T21:48:12.466Z,68.37
2024-04-30T21:50:14.535Z,68.46
2024-04-30T21:52:16.518Z,68.59
2024-04-30T21:54:18.380Z,68.73
2024-04-30T21:56:20.448Z,69.36
2024-04-30T21:58:23.091Z,69.56
2024-04-30T22:00:25.529Z,69.66
2024-04-30T22:02:27.915Z,69.82
2024-04-30T22:04:30.391Z,70.26
2024-04-30T22:06:32.706Z,70.42
2024-04-30T22:08:34.829Z,70.31
2024-04-30T22:10:37.312Z,70.24
2024-04-30T22:12:39.230Z,70.05
2024-04-30T22:14:41.081Z,70.06
2024-04-30T22:16:43.015Z,70.03
2024-04-30T22:18:45.073Z,70.19
2024-04-30T22:20:47.487Z,70.60
2024-04-30T22:22:49.555Z,70.58
2024-04-30T22:24:51.690Z,70.50
2024-04-30T22:26:53.872Z,70.54
2024-04-30T22:28:56.118Z,70.64
2024-04-30T22:30:58.600Z,70.86
2024-04-30T22:33:04.138Z,70.66
2024-04-30T22:35:06.382Z,70.83
2024-04-30T22:37:08.489Z,71.00
2024-04-30T22:39:11.277Z,70.77
2024-04-30T22:41:13.155Z,70.53
2024-04-30T22:43:14.908Z,70.72
2024-04-30T22:45:16.964Z,70.90
2024-04-30T22:47:19.249Z,70.79
2024-04-30T22:49:21.161Z,70.67
2024-04-30T22:51:28.929Z,70.75
2024-04-30T22:53:40.731Z,70.61
2024-04-30T22:55:49.398Z,70.74
2024-04-30T22:57:51.237Z,70.56
2024-04-30T22:59:53.082Z,70.63
2024-04-30T23:01:55.088Z,70.94
2024-04-30T23:03:57.239Z,70.87
2024-04-30T23:05:59.072Z,71.06
2024-04-30T23:08:00.925Z,70.75
2024-04-30T23:10:02.960Z,71.01
2024-04-30T23:12:05.273Z,71.19
2024-04-30T23:14:07.342Z,71.28
2024-04-30T23:16:09.276Z,71.59
2024-04-30T23:18:12.066Z,71.92
2024-04-30T23:20:14.204Z,72.17
2024-04-30T23:22:16.347Z,71.95
2024-04-30T23:24:18.183Z,71.78
2024-04-30T23:26:20.283Z,72.16
2024-04-30T23:28:22.049Z,72.08
2024-04-30T23:30:24.015Z,72.30
2024-04-30T23:32:25.932Z,71.82
2024-04-30T23:34:27.786Z,71.99
2024-04-30T23:36:29.636Z,71.99
2024-04-30T23:38:31.415Z,72.11
2024-04-30T23:40:33.163Z,71.84
2024-04-30T23:42:38.726Z,72.11
2024-04-30T23:44:40.610Z,72.28
2024-04-30T23:46:42.447Z,72.31
2024-04-30T23:48:44.860Z,72.01
2024-04-30T23:50:46.679Z,72.15
2024-04-30T23:52:48.464Z,72.10
2024-04-30T23:54:50.328Z,72.09
2024-04-30T23:56:52.136Z,72.08
2024-04-30T23:58:54.036Z,72.02
